Ganser Bar, California
Current Conditions -  °F | °C
As of 8:10 PM on Saturday 20 Dec 2014 (Local Time) from KOVE Reporting Station
Light Rain Light Rain  
Wind Chill: 12°   Ceiling: 2600
Heat Index: 12°   Visibility: 10mi
Dew Point: 11°   Wind: 10mph
Humidity: 93%   Direction: 120°ESE
Pressure: 30.24"   Gusts: NA
Location:  40.0464°N, 121.282°W
Report Text: KOVE 210410Z AUTO 12009KT 10SM -RA SCT014 OVC026 12/11 A3024 RMK AO2 RAB0359 P0001 T01220111
Loading
Personal Weather Stations






























Interactive Weather Map New forecast layout! Learn more

10-Day Weather Forecast

Advertisements
Track Severe Weather on mobile